FW8147 Weather Reports


Display with metric or nautical units.
time (UTC)temp
F
wind
direction
speed
MPH
gust
MPH
rain 1hr
in
rain 24hr
in
rain mn
in
humidity
%
barometer
mb
20240612204517 85 200 2.0 6.0 0.00 0.00 0.00 48 1015.0
20240612204016 85 111 4.0 8.0 0.00 0.00 0.00 46 1015.2
20240612203515 85 191 3.0 9.0 0.00 0.00 0.00 47 1015.1
20240612203013 85 183 0.0 4.0 0.00 0.00 0.00 55 1015.2
20240612202507 85 154 7.0 9.0 0.00 0.00 0.00 46 1015.3
20240612202005 84 162 3.0 8.0 0.00 0.00 0.00 48 1015.4
20240612201505 84 160 2.0 8.0 0.00 0.00 0.00 49 1015.2
20240612201004 84 161 1.0 6.0 0.00 0.00 0.00 52 1015.5
20240612200459 85 180 1.0 7.0 0.00 0.00 0.00 50 1015.5
20240612195957 85 242 2.0 7.0 0.00 0.00 0.00 46 1015.4
20240612195457 85 145 3.0 7.0 0.00 0.00 0.00 47 1015.6
20240612194955 85 226 4.0 9.0 0.00 0.00 0.00 44 1015.5
20240612194455 84 230 6.0 7.0 0.00 0.00 0.00 44 1015.7
20240612193954 85 237 2.0 6.0 0.00 0.00 0.00 49 1015.6
20240612193452 84 253 4.0 9.0 0.00 0.00 0.00 47 1015.7
20240612192951 84 148 2.0 7.0 0.00 0.00 0.00 50 1015.7
20240612192451 84 138 2.0 8.0 0.00 0.00 0.00 49 1015.6
20240612191950 84 223 2.0 6.0 0.00 0.00 0.00 46 1015.7
20240612191448 85 229 4.0 7.0 0.00 0.00 0.00 47 1016.0
20240612190947 84 183 1.0 6.0 0.00 0.00 0.00 51 1015.8
20240612190445 84 178 3.0 6.0 0.00 0.00 0.00 56 1016.1
20240612185943 84 115 2.0 8.0 0.00 0.00 0.00 52 1016.1
20240612185442 84 172 2.0 4.0 0.00 0.00 0.00 55 1016.1
20240612184941 84 205 5.0 7.0 0.00 0.00 0.00 52 1016.2
20240612184440 83 168 1.0 4.0 0.00 0.00 0.00 53 1016.2
20240612183938 84 157 0.0 6.0 0.00 0.00 0.00 55 1016.3
20240612183438 84 242 4.0 7.0 0.00 0.00 0.00 52 1016.4
20240612182936 83 165 1.0 7.0 0.00 0.00 0.00 59 1016.4
20240612182434 84 154 1.0 6.0 0.00 0.00 0.00 56 1016.3
20240612181934 84 166 1.0 3.0 0.00 0.00 0.00 54 1016.5
20240612181433 84 214 2.0 7.0 0.00 0.00 0.00 52 1016.6
20240612180932 83 136 1.0 3.0 0.00 0.00 0.00 55 1016.4
20240612180430 84 179 1.0 6.0 0.00 0.00 0.00 51 1016.5
20240612175929 82 182 3.0 4.0 0.00 0.00 0.00 50 1016.6
20240612175427 83 186 3.0 7.0 0.00 0.00 0.00 52 1016.5
20240612174925 83 177 3.0 4.0 0.00 0.00 0.00 55 1016.6
20240612174424 82 147 2.0 7.0 0.00 0.00 0.00 52 1016.6
20240612173923 83 150 6.0 8.0 0.00 0.00 0.00 52 1016.5
20240612173420 82 173 2.0 3.0 0.00 0.00 0.00 56 1016.4
20240612172918 82 134 4.0 8.0 0.00 0.00 0.00 51 1016.5
20240612172417 82 200 4.0 6.0 0.00 0.00 0.00 53 1016.6
20240612171916 82 164 3.0 4.0 0.00 0.00 0.00 55 1016.6
20240612171415 82 221 2.0 6.0 0.00 0.00 0.00 57 1016.6
20240612170915 82 160 2.0 8.0 0.00 0.00 0.00 57 1016.8
20240612170414 82 156 2.0 7.0 0.00 0.00 0.00 59 1016.5
20240612165913 83 138 3.0 7.0 0.00 0.00 0.00 55 1016.7
20240612165411 82 176 1.0 3.0 0.00 0.00 0.00 54 1016.9
20240612164909 82 234 1.0 4.0 0.00 0.00 0.00 54 1016.7
20240612164408 81 153 4.0 7.0 0.00 0.00 0.00 54 1016.9
20240612163906 82 155 1.0 8.0 0.00 0.00 0.00 58 1016.8
20240612163405 81 147 2.0 2.0 0.00 0.00 0.00 55 1016.8
20240612162904 80 238 2.0 4.0 0.00 0.00 0.00 59 1017.0
20240612162402 81 216 4.0 6.0 0.00 0.00 0.00 56 1016.9
20240612161900 81 194 2.0 3.0 0.00 0.00 0.00 57 1016.9
20240612161359 80 182 3.0 4.0 0.00 0.00 0.00 53 1017.1
20240612160857 81 142 4.0 6.0 0.00 0.00 0.00 55 1017.1
20240612160356 80 241 3.0 6.0 0.00 0.00 0.00 61 1017.2
20240612155854 80 181 1.0 4.0 0.00 0.00 0.00 62 1017.2
20240612155353 80 235 2.0 3.0 0.00 0.00 0.00 61 1017.1
20240612154850 80 281 3.0 7.0 0.00 0.00 0.00 61 1017.1
20240612154348 79 195 1.0 4.0 0.00 0.00 0.00 62 1017.1
20240612153848 79 183 2.0 3.0 0.00 0.00 0.00 65 1017.2
20240612153346 79 239 3.0 4.0 0.00 0.00 0.00 64 1016.9
20240612152846 79 136 4.0 4.0 0.00 0.00 0.00 67 1017.0
20240612152344 78 231 2.0 4.0 0.00 0.00 0.00 65 1017.0
20240612151842 78 174 5.0 6.0 0.00 0.00 0.00 65 1017.0
20240612151342 78 249 4.0 6.0 0.00 0.00 0.00 67 1017.1
20240612150841 78 251 2.0 3.0 0.00 0.00 0.00 67 1017.2
20240612150341 77 154 0.0 6.0 0.00 0.00 0.00 75 1017.3
20240612145839 78 153 0.0 3.0 0.00 0.00 0.00 72 1017.1
20240612145337 77 178 2.0 3.0 0.00 0.00 0.00 71 1017.1
20240612144836 77 227 2.0 4.0 0.00 0.00 0.00 72 1017.1
20240612144335 76 178 1.0 3.0 0.00 0.00 0.00 76 1017.2
20240612143834 76 154 2.0 4.0 0.00 0.00 0.00 75 1017.2
20240612143332 76 164 4.0 6.0 0.00 0.00 0.00 75 1017.3
20240612142831 75 170 1.0 6.0 0.00 0.00 0.00 77 1017.3
20240612142331 75 160 5.0 7.0 0.00 0.00 0.00 75 1017.2
20240612141829 74 164 2.0 4.0 0.00 0.00 0.00 79 1017.2
20240612141327 74 178 2.0 6.0 0.00 0.00 0.00 80 1017.2
20240612140826 74 155 1.0 4.0 0.00 0.00 0.00 79 1017.1
20240612140324 73 143 2.0 4.0 0.00 0.00 0.00 80 1017.4
20240612135823 73 162 1.0 3.0 0.00 0.00 0.00 79 1017.1
20240612135321 73 160 2.0 3.0 0.00 0.00 0.00 79 1017.1
20240612134821 73 207 2.0 3.0 0.00 0.00 0.00 79 1017.3
20240612134319 72 170 0.0 3.0 0.00 0.00 0.00 79 1017.2
20240612133818 72 161 2.0 4.0 0.00 0.00 0.00 81 1017.2
20240612133317 72 138 4.0 4.0 0.00 0.00 0.00 81 1017.4
20240612132816 71 162 1.0 4.0 0.00 0.00 0.00 81 1017.2
20240612132314 71 200 2.0 4.0 0.00 0.00 0.00 82 1017.2
20240612131813 70 172 2.0 4.0 0.00 0.00 0.00 83 1017.0
20240612131311 70 165 1.0 4.0 0.00 0.00 0.00 83 1017.2
20240612130811 70 180 1.0 2.0 0.00 0.00 0.00 84 1017.0
20240612130310 69 202 1.0 3.0 0.00 0.00 0.00 84 1017.0
20240612125809 68 182 3.0 3.0 0.00 0.00 0.00 84 1017.1
20240612125307 68 148 0.0 4.0 0.00 0.00 0.00 84 1016.9
20240612124806 68 168 1.0 3.0 0.00 0.00 0.00 85 1017.0
20240612124305 68 154 3.0 6.0 0.00 0.00 0.00 84 1016.8
20240612123804 68 161 3.0 3.0 0.00 0.00 0.00 84 1016.7
20240612123303 67 120 3.0 4.0 0.00 0.00 0.00 84 1016.8
20240612122802 67 154 1.0 3.0 0.00 0.00 0.00 85 1016.8
20240612122305 66 156 2.0 3.0 0.00 0.00 0.00 85 1016.7
20240612121801 66 149 1.0 4.0 0.00 0.00 0.00 86 1016.6
20240612121259 66 161 2.0 4.0 0.00 0.00 0.00 86 1016.6
20240612120758 65 168 2.0 4.0 0.00 0.00 0.00 87 1016.6
20240612120256 65 168 1.0 4.0 0.00 0.00 0.00 87 1016.5
20240612115755 65 166 1.0 3.0 0.00 0.00 0.00 87 1016.6
20240612115254 64 151 2.0 2.0 0.00 0.00 0.00 88 1016.6
20240612114753 64 126 3.0 4.0 0.00 0.00 0.00 89 1016.4
20240612114250 64 175 2.0 4.0 0.00 0.00 0.00 89 1016.3
20240612113749 64 168 2.0 3.0 0.00 0.00 0.00 90 1016.2
20240612113248 63 176 1.0 2.0 0.00 0.00 0.00 91 1016.3
20240612112747 62 151 1.0 3.0 0.00 0.00 0.00 92 1016.2
20240612112245 62 179 1.0 2.0 0.00 0.00 0.00 92 1016.1
20240612111744 62 167 2.0 3.0 0.00 0.00 0.00 93 1016.3
20240612111244 62 173 2.0 3.0 0.00 0.00 0.00 93 1016.3
20240612110743 62 150 2.0 3.0 0.00 0.00 0.00 93 1016.1
20240612110242 62 165 1.0 2.0 0.00 0.00 0.00 93 1016.2
20240612105740 62 160 0.0 2.0 0.00 0.00 0.00 92 1016.1
20240612105239 62 180 0.0 2.0 0.00 0.00 0.00 92 1016.0
20240612104739 62 158 2.0 2.0 0.00 0.00 0.00 92 1016.1
20240612104236 62 154 0.0 2.0 0.00 0.00 0.00 92 1016.1
20240612103735 62 142 1.0 2.0 0.00 0.00 0.00 92 1016.0
20240612103234 62 156 0.0 1.0 0.00 0.00 0.00 92 1016.0
20240612102734 62 175 0.0 1.0 0.00 0.00 0.00 91 1016.2
20240612102234 62 175 1.0 1.0 0.00 0.00 0.00 92 1016.0
20240612101732 62 169 0.0 0.0 0.00 0.00 0.00 92 1016.0
20240612101230 62 156 0.0 0.0 0.00 0.00 0.00 91 1016.0
20240612100729 63 162 0.0 0.0 0.00 0.00 0.00 90 1016.1
20240612100228 63 155 0.0 0.0 0.00 0.00 0.00 90 1016.1
20240612095726 63 170 0.0 1.0 0.00 0.00 0.00 90 1015.7
20240612095225 63 162 0.0 1.0 0.00 0.00 0.00 90 1015.7
20240612094724 63 172 1.0 1.0 0.00 0.00 0.00 89 1015.8
20240612094221 63 161 0.0 2.0 0.00 0.00 0.00 89 1015.7
20240612093720 63 170 1.0 1.0 0.00 0.00 0.00 90 1015.7
20240612093219 63 159 0.0 1.0 0.00 0.00 0.00 90 1015.8
20240612092718 63 171 1.0 1.0 0.00 0.00 0.00 89 1015.6
20240612092213 64 162 0.0 2.0 0.00 0.00 0.00 90 1015.7
20240612091713 64 173 1.0 2.0 0.00 0.00 0.00 90 1015.7
20240612091211 64 143 2.0 2.0 0.00 0.00 0.00 90 1015.6
20240612090710 64 166 1.0 2.0 0.00 0.00 0.00 90 1015.7
20240612090209 64 169 0.0 1.0 0.00 0.00 0.00 91 1015.8
20240612085708 64 160 0.0 0.0 0.00 0.00 0.00 90 1015.5
20240612085208 64 156 0.0 1.0 0.00 0.00 0.00 90 1015.6
20240612084707 64 167 0.0 1.0 0.00 0.00 0.00 90 1015.6
20240612084207 64 162 0.0 1.0 0.00 0.00 0.00 90 1015.6
20240612083707 64 170 0.0 1.0 0.00 0.00 0.00 90 1015.5
20240612083205 64 161 0.0 1.0 0.00 0.00 0.00 90 1015.5
20240612082704 64 161 0.0 1.0 0.00 0.00 0.00 90 1015.7
20240612082203 64 167 0.0 1.0 0.00 0.00 0.00 89 1015.4
20240612081702 64 164 0.0 1.0 0.00 0.00 0.00 89 1015.6
20240612081201 64 155 0.0 2.0 0.00 0.00 0.00 89 1015.5
20240612080659 64 164 0.0 1.0 0.00 0.00 0.00 90 1015.7
20240612080157 64 166 0.0 0.0 0.00 0.00 0.00 89 1015.7
20240612075656 64 170 0.0 1.0 0.00 0.00 0.00 89 1015.7
20240612075155 64 164 0.0 0.0 0.00 0.00 0.00 89 1015.7
20240612074653 65 162 0.0 0.0 0.00 0.00 0.00 88 1015.7
20240612074152 65 167 0.0 2.0 0.00 0.00 0.00 87 1015.6
20240612073650 65 170 0.0 0.0 0.00 0.00 0.00 87 1015.8
20240612073148 65 165 0.0 0.0 0.00 0.00 0.00 87 1015.7
20240612072647 65 161 0.0 0.0 0.00 0.00 0.00 87 1015.6
20240612072146 65 167 0.0 0.0 0.00 0.00 0.00 86 1015.6
20240612071644 65 164 0.0 0.0 0.00 0.00 0.00 86 1015.7
20240612071143 65 164 0.0 0.0 0.00 0.00 0.00 85 1015.7
20240612070643 65 164 0.0 0.0 0.00 0.00 0.00 85 1015.6
20240612070141 65 166 0.0 1.0 0.00 0.00 0.00 85 1015.7
20240612065640 65 156 0.0 1.0 0.00 0.00 0.00 84 1015.8
20240612065137 66 159 0.0 0.0 0.00 0.00 0.00 84 1015.7
20240612064636 66 162 0.0 0.0 0.00 0.00 0.00 83 1015.7
20240612064135 66 158 0.0 1.0 0.00 0.00 0.00 82 1015.6
20240612063632 66 163 0.0 0.0 0.00 0.00 0.00 82 1015.7
20240612063131 66 153 1.0 1.0 0.00 0.00 0.00 81 1015.6
20240612062629 66 165 0.0 1.0 0.00 0.00 0.00 82 1015.7
20240612062127 66 169 0.0 0.0 0.00 0.00 0.00 82 1015.6
20240612061626 67 166 0.0 0.0 0.00 0.00 0.00 81 1015.5
20240612061126 67 166 0.0 0.0 0.00 0.00 0.00 80 1016.0
20240612060625 67 166 0.0 0.0 0.00 0.00 0.00 81 1015.7
20240612060124 66 160 0.0 1.0 0.00 0.00 0.00 82 1015.8
20240612055623 66 173 0.0 1.0 0.00 0.00 0.00 83 1015.8
20240612055120 66 178 0.0 1.0 0.00 0.00 0.00 83 1015.8
20240612054619 66 170 0.0 0.0 0.00 0.00 0.00 83 1015.7
20240612054119 66 170 0.0 0.0 0.00 0.00 0.00 83 1015.6
20240612053617 66 169 0.0 0.0 0.00 0.00 0.00 83 1016.0
20240612053116 66 169 0.0 0.0 0.00 0.00 0.00 83 1016.0
20240612052615 67 170 0.0 0.0 0.00 0.00 0.00 82 1016.0
20240612052114 67 163 0.0 0.0 0.00 0.00 0.00 81 1016.0
20240612051612 67 165 0.0 0.0 0.00 0.00 0.00 81 1016.2
20240612051110 66 173 0.0 0.0 0.00 0.00 0.00 83 1016.0
20240612050610 67 172 0.0 0.0 0.00 0.00 0.00 83 1015.8
20240612050108 66 172 0.0 0.0 0.00 0.00 0.00 83 1015.8
20240612045608 66 173 0.0 0.0 0.00 0.00 0.00 86 1016.1
20240612045106 66 173 0.0 0.0 0.00 0.00 0.00 86 1016.0
20240612044605 66 173 0.0 0.0 0.00 0.00 0.00 85 1015.7
20240612044105 66 173 0.0 0.0 0.00 0.00 0.00 84 1015.8
20240612043605 66 174 0.0 0.0 0.00 0.00 0.00 84 1016.1
20240612043103 67 172 0.0 0.0 0.00 0.00 0.00 84 1015.7
20240612042602 67 172 0.0 0.0 0.00 0.00 0.00 83 1015.6
20240612042101 67 172 0.0 0.0 0.00 0.00 0.00 82 1015.7
20240612041601 66 172 0.0 0.0 0.00 0.00 0.00 82 1015.7
20240612041100 66 173 0.0 0.0 0.00 0.00 0.00 83 1015.6
20240612040559 66 173 0.0 0.0 0.00 0.00 0.00 83 1015.5
20240612040057 67 173 0.0 0.0 0.00 0.00 0.00 82 1015.6
20240612035556 67 173 0.0 0.0 0.00 0.00 0.00 81 1015.5
20240612035053 67 173 0.0 0.0 0.00 0.00 0.00 81 1015.6
20240612034552 67 173 0.0 0.0 0.00 0.00 0.00 82 1015.5
20240612034050 67 173 0.0 0.0 0.00 0.00 0.00 81 1015.6
20240612033550 67 173 0.0 0.0 0.00 0.00 0.00 80 1015.4
20240612033049 67 173 0.0 0.0 0.00 0.00 0.00 81 1015.6
20240612032548 67 173 0.0 0.0 0.00 0.00 0.00 80 1015.6
20240612032046 68 174 0.0 0.0 0.00 0.00 0.00 79 1015.6
20240612031544 68 174 0.0 0.0 0.00 0.00 0.00 78 1015.3
20240612031042 68 174 0.0 0.0 0.00 0.00 0.00 78 1015.5
20240612030540 68 175 0.0 0.0 0.00 0.00 0.00 78 1015.2
20240612030040 68 149 0.0 0.0 0.00 0.00 0.00 79 1015.1
20240612025538 68 149 0.0 0.0 0.00 0.00 0.00 78 1015.1
20240612025039 68 149 0.0 0.0 0.00 0.00 0.00 77 1015.1
20240612024537 68 149 0.0 0.0 0.00 0.00 0.00 77 1014.8
20240612024037 69 149 0.0 0.0 0.00 0.00 0.00 75 1014.9
20240612023535 69 149 0.0 0.0 0.00 0.00 0.00 74 1014.8
20240612023035 70 148 0.0 0.0 0.00 0.00 0.00 73 1014.9
20240612022535 71 149 0.0 0.0 0.00 0.00 0.00 71 1014.7
20240612022034 71 149 0.0 0.0 0.00 0.00 0.00 70 1014.9
20240612021533 71 149 0.0 0.0 0.00 0.00 0.00 70 1014.8
20240612021033 71 149 0.0 0.0 0.00 0.00 0.00 69 1014.8
20240612020532 71 149 0.0 0.0 0.00 0.00 0.00 68 1014.9
20240612020030 71 149 0.0 0.0 0.00 0.00 0.00 69 1014.6
20240612015525 71 149 0.0 0.0 0.00 0.00 0.00 68 1014.5
20240612015024 71 149 0.0 0.0 0.00 0.00 0.00 68 1014.7
20240612014520 72 149 0.0 0.0 0.00 0.00 0.00 68 1014.6
20240612014019 72 148 0.0 0.0 0.00 0.00 0.00 68 1014.8
20240612013517 73 149 0.0 0.0 0.00 0.00 0.00 67 1014.5
20240612013016 73 149 0.0 0.0 0.00 0.00 0.00 65 1014.3
20240612012513 74 149 0.0 0.0 0.00 0.00 0.00 64 1014.6
20240612012012 74 149 0.0 0.0 0.00 0.00 0.00 63 1014.6
20240612011511 74 149 0.0 0.0 0.00 0.00 0.00 61 1014.4
20240612011008 74 148 0.0 0.0 0.00 0.00 0.00 61 1014.5
20240612010507 75 148 0.0 0.0 0.00 0.00 0.00 61 1014.4
20240612010005 75 148 0.0 0.0 0.00 0.00 0.00 60 1014.3
20240612005504 76 145 0.0 0.0 0.00 0.00 0.00 59 1014.4
20240612005003 76 144 0.0 0.0 0.00 0.00 0.00 56 1014.5
20240612004502 76 164 0.0 0.0 0.00 0.00 0.00 56 1014.4
20240612003959 77 171 0.0 0.0 0.00 0.00 0.00 56 1014.4
20240612003458 77 134 0.0 0.0 0.00 0.00 0.00 55 1014.3
20240612002957 77 174 0.0 1.0 0.00 0.00 0.00 55 1014.2
20240612002454 78 174 0.0 1.0 0.00 0.00 0.00 54 1014.4
20240612001953 78 161 0.0 0.0 0.00 0.00 0.00 54 1014.5
20240612001451 79 178 0.0 1.0 0.00 0.00 0.00 53 1014.5
20240612000951 79 354 2.0 2.0 0.00 0.00 0.00 50 1014.6
20240612000427 79 107 1.0 2.0 0.00 0.00 0.00 52 1014.5
20240611235926 80 54 1.0 2.0 0.00 0.00 0.00 50 1014.3
20240611235425 81 124 0.0 1.0 0.00 0.00 0.00 48 1014.4
20240611234924 81 182 1.0 2.0 0.00 0.00 0.00 49 1014.5
20240611234422 80 244 1.0 2.0 0.00 0.00 0.00 49 1014.5
20240611233920 82 185 0.0 2.0 0.00 0.00 0.00 48 1014.6
20240611233419 80 184 0.0 2.0 0.00 0.00 0.00 49 1014.7
20240611232918 80 282 2.0 3.0 0.00 0.00 0.00 49 1014.4
20240611232417 81 57 1.0 2.0 0.00 0.00 0.00 48 1014.7
20240611231915 81 225 2.0 3.0 0.00 0.00 0.00 49 1014.6
20240611231414 81 56 2.0 4.0 0.00 0.00 0.00 48 1014.5
20240611230912 81 279 2.0 4.0 0.00 0.00 0.00 50 1014.5
20240611230411 82 92 2.0 3.0 0.00 0.00 0.00 48 1014.5
20240611225906 82 186 1.0 1.0 0.00 0.00 0.00 45 1014.7
20240611225403 82 166 0.0 4.0 0.00 0.00 0.00 47 1014.7
20240611224902 81 14 1.0 3.0 0.00 0.00 0.00 48 1014.8
20240611224400 81 84 1.0 3.0 0.00 0.00 0.00 50 1014.8
20240611223859 82 142 1.0 3.0 0.00 0.00 0.00 47 1014.8
20240611223347 82 164 0.0 3.0 0.00 0.00 0.00 48 1014.9
20240611222845 82 233 2.0 4.0 0.00 0.00 0.00 46 1015.0
20240611222344 81 215 1.0 1.0 0.00 0.00 0.00 48 1015.0
20240611221842 81 84 0.0 1.0 0.00 0.00 0.00 50 1015.0
20240611221341 82 78 0.0 2.0 0.00 0.00 0.00 54 1015.0
20240611220840 80 81 1.0 2.0 0.00 0.00 0.00 50 1015.2
20240611220338 81 44 2.0 3.0 0.00 0.00 0.00 50 1015.2
20240611215837 82 168 3.0 4.0 0.00 0.00 0.00 51 1015.3
20240611215336 80 188 0.0 2.0 0.00 0.00 0.00 54 1015.2
20240611214834 80 54 2.0 3.0 0.00 0.00 0.00 53 1015.2
20240611214333 80 123 1.0 3.0 0.00 0.00 0.00 55 1015.4
20240611213832 82 24 2.0 3.0 0.00 0.00 0.00 52 1015.3
20240611213330 81 230 1.0 4.0 0.00 0.00 0.00 54 1015.4
20240611212828 82 191 1.0 2.0 0.00 0.00 0.00 53 1015.1
20240611212328 82 271 1.0 3.0 0.00 0.00 0.00 51 1015.4
20240611211826 81 237 2.0 3.0 0.00 0.00 0.00 55 1015.3
20240611211325 82 201 2.0 3.0 0.00 0.00 0.00 50 1015.5
20240611210823 82 341 4.0 4.0 0.00 0.00 0.00 48 1015.5
20240611210322 81 229 1.0 2.0 0.00 0.00 0.00 51 1015.4
20240611205820 81 305 2.0 6.0 0.00 0.00 0.00 52 1015.6
20240611205318 80 201 1.0 1.0 0.00 0.00 0.00 53 1015.5
20240611204817 82 244 1.0 3.0 0.00 0.00 0.00 54 1015.5